Time;durP1;ratioP1;P1;durP2;ratioP2;P2;SDS_P1;SDS_P2;PMS_P1;PMS_P2;Temp;Humidity;BMP_temperature;BMP_pressure;BME280_temperature;BME280_humidity;BME280_pressure;Samples;Min_cycle;Max_cycle;Signal;HPM_P1;HPM_P2
2022/03/31 00:00:16;;;;;;;1.45;1.45;;;;;;;;;;5008424;28;98605;-80
2022/03/31 00:02:42;;;;;;;1.88;1.77;;;;;;;;;;5009661;28;99093;-79
2022/03/31 00:05:09;;;;;;;2.40;2.20;;;;;;;;;;5009583;28;99449;-80
2022/03/31 00:07:46;;;;;;;2.50;2.30;;;;;;;;;;5008909;28;99101;-79
2022/03/31 00:10:12;;;;;;;1.90;1.83;;;;;;;;;;5009447;28;99714;-80
2022/03/31 00:12:39;;;;;;;2.25;2.17;;;;;;;;;;5008150;28;101244;-80
2022/03/31 00:15:05;;;;;;;2.00;1.90;;;;;;;;;;5009152;28;98621;-80
2022/03/31 00:17:32;;;;;;;1.40;1.40;;;;;;;;;;5012003;28;100100;-79
2022/03/31 00:19:58;;;;;;;2.50;2.40;;;;;;;;;;5008681;28;98569;-80
2022/03/31 00:22:31;;;;;;;4.22;2.33;;;;;;;;;;5023020;27;99254;-81
2022/03/31 00:24:57;;;;;;;3.55;1.88;;;;;;;;;;5008898;28;100318;-80
2022/03/31 00:27:24;;;;;;;4.50;2.15;;;;;;;;;;5009178;28;99332;-81
2022/03/31 00:29:50;;;;;;;2.53;2.33;;;;;;;;;;5007676;28;101707;-81
2022/03/31 00:32:16;;;;;;;1.88;1.77;;;;;;;;;;5008900;27;99483;-81
2022/03/31 00:34:43;;;;;;;3.00;2.22;;;;;;;;;;5008779;28;98563;-80
2022/03/31 00:37:28;;;;;;;2.70;2.60;;;;;;;;;;5008324;28;100071;-81
2022/03/31 00:40:04;;;;;;;4.60;2.42;;;;;;;;;;5012833;27;99305;-80
2022/03/31 00:42:31;;;;;;;2.60;2.50;;;;;;;;;;5008723;27;99313;-80
2022/03/31 00:44:57;;;;;;;2.13;2.03;;;;;;;;;;5008586;28;100197;-79
2022/03/31 00:47:23;;;;;;;2.42;2.33;;;;;;;;;;5008865;28;98514;-79
2022/03/31 00:49:50;;;;;;;2.33;2.22;;;;;;;;;;5008584;27;99097;-79
2022/03/31 00:52:16;;;;;;;2.45;2.17;;;;;;;;;;5008251;28;100180;-79
2022/03/31 00:54:43;;;;;;;2.80;2.60;;;;;;;;;;5008981;28;97787;-78
2022/03/31 00:57:11;;;;;;;4.55;2.75;;;;;;;;;;5009025;28;98513;-78
2022/03/31 00:59:37;;;;;;;2.45;2.30;;;;;;;;;;5008261;28;100437;-79
2022/03/31 01:02:04;;;;;;;1.98;1.88;;;;;;;;;;5011113;28;99621;-78
2022/03/31 01:04:31;;;;;;;1.77;1.73;;;;;;;;;;5008364;28;99672;-78
2022/03/31 01:06:57;;;;;;;2.28;2.17;;;;;;;;;;5008850;28;98528;-79
2022/03/31 01:09:24;;;;;;;2.08;1.98;;;;;;;;;;5007767;28;99893;-77
2022/03/31 01:11:52;;;;;;;2.00;1.90;;;;;;;;;;5008358;28;100188;-77
2022/03/31 01:14:20;;;;;;;2.05;1.95;;;;;;;;;;5008285;28;99428;-77
2022/03/31 01:16:46;;;;;;;4.07;2.00;;;;;;;;;;5007344;28;99881;-77
2022/03/31 01:19:13;;;;;;;2.15;2.00;;;;;;;;;;5008541;28;99774;-78
2022/03/31 01:21:43;;;;;;;2.22;2.13;;;;;;;;;;5008643;28;98624;-77
2022/03/31 01:24:14;;;;;;;2.15;2.05;;;;;;;;;;5010551;28;98924;-77
2022/03/31 01:26:41;;;;;;;3.08;2.78;;;;;;;;;;5008414;28;99310;-75
2022/03/31 01:29:10;;;;;;;2.15;2.00;;;;;;;;;;5008294;28;100849;-76
2022/03/31 01:31:40;;;;;;;2.63;2.08;;;;;;;;;;5007341;28;100395;-77
2022/03/31 01:34:07;;;;;;;2.67;2.53;;;;;;;;;;5008480;28;98524;-78
2022/03/31 01:36:37;;;;;;;1.67;1.58;;;;;;;;;;5008321;28;100013;-78
2022/03/31 01:39:04;;;;;;;1.77;1.77;;;;;;;;;;5007741;28;100319;-80
2022/03/31 01:41:30;;;;;;;1.70;1.70;;;;;;;;;;5008860;28;98532;-79
2022/03/31 01:43:57;;;;;;;2.55;1.80;;;;;;;;;;5011539;28;100355;-78
2022/03/31 01:46:24;;;;;;;2.42;1.85;;;;;;;;;;5014591;28;100724;-76
2022/03/31 01:48:52;;;;;;;1.60;1.50;;;;;;;;;;5011677;28;99809;-76
2022/03/31 01:51:19;;;;;;;1.88;1.77;;;;;;;;;;5010062;28;100100;-76
2022/03/31 01:53:46;;;;;;;1.92;1.83;;;;;;;;;;5011747;28;98491;-76
2022/03/31 01:56:13;;;;;;;2.38;2.28;;;;;;;;;;5011676;28;98976;-76
2022/03/31 01:58:40;;;;;;;2.22;2.13;;;;;;;;;;5010570;28;100746;-77
2022/03/31 02:01:06;;;;;;;2.35;2.13;;;;;;;;;;5011174;28;98588;-78
2022/03/31 02:03:33;;;;;;;2.25;1.95;;;;;;;;;;5011400;28;100023;-78
2022/03/31 02:06:00;;;;;;;2.55;2.38;;;;;;;;;;5010604;28;99116;-80
2022/03/31 02:08:27;;;;;;;1.83;1.73;;;;;;;;;;5014678;28;98319;-83
2022/03/31 02:10:53;;;;;;;4.13;2.20;;;;;;;;;;5011175;28;100306;-83
2022/03/31 02:13:20;;;;;;;1.30;1.30;;;;;;;;;;5010365;28;98590;-84
2022/03/31 02:15:46;;;;;;;3.85;2.42;;;;;;;;;;5011028;28;99745;-83
2022/03/31 02:18:13;;;;;;;2.28;2.17;;;;;;;;;;5010695;28;100283;-83
2022/03/31 02:20:41;;;;;;;2.25;2.10;;;;;;;;;;5010514;28;98557;-83
2022/03/31 02:23:08;;;;;;;2.50;2.30;;;;;;;;;;5011413;28;100074;-82
2022/03/31 02:25:34;;;;;;;2.78;2.58;;;;;;;;;;5010883;28;100624;-81
2022/03/31 02:28:01;;;;;;;2.53;2.40;;;;;;;;;;5014229;28;98917;-80
2022/03/31 02:30:28;;;;;;;3.22;2.65;;;;;;;;;;5010684;28;99433;-78
2022/03/31 02:32:54;;;;;;;3.88;3.55;;;;;;;;;;5011790;28;97861;-78
2022/03/31 02:35:21;;;;;;;6.45;3.90;;;;;;;;;;5010019;28;99259;-78
2022/03/31 02:37:47;;;;;;;4.55;2.92;;;;;;;;;;5010575;28;100295;-78
2022/03/31 02:40:13;;;;;;;5.72;3.05;;;;;;;;;;4991564;28;99367;-78
2022/03/31 02:42:40;;;;;;;4.18;3.40;;;;;;;;;;5010708;28;100672;-77
2022/03/31 02:45:07;;;;;;;5.10;3.25;;;;;;;;;;5009823;28;102093;-77
2022/03/31 02:47:35;;;;;;;2.65;2.47;;;;;;;;;;5009811;28;98665;-76
2022/03/31 02:50:02;;;;;;;3.47;3.17;;;;;;;;;;5013703;28;99954;-76
2022/03/31 02:55:24;;;;;;;3.05;2.83;;;;;;;;;;5010610;28;99815;-75
2022/03/31 02:55:24;;;;;;;2.60;2.50;;;;;;;;;;5009811;28;100378;-75
2022/03/31 02:57:51;;;;;;;4.15;2.67;;;;;;;;;;5010855;28;99846;-75
2022/03/31 03:00:18;;;;;;;2.30;2.17;;;;;;;;;;5010126;28;98555;-75
2022/03/31 03:02:44;;;;;;;2.10;2.00;;;;;;;;;;5010316;28;99577;-74
2022/03/31 03:05:11;;;;;;;6.25;3.33;;;;;;;;;;5009164;28;100914;-74
2022/03/31 03:07:37;;;;;;;3.13;2.92;;;;;;;;;;5010197;28;98600;-74
2022/03/31 03:10:03;;;;;;;9.20;2.40;;;;;;;;;;5010024;28;100087;-75
2022/03/31 03:12:31;;;;;;;2.65;2.45;;;;;;;;;;5013119;28;99489;-74
2022/03/31 03:14:57;;;;;;;3.83;3.40;;;;;;;;;;5010002;28;99978;-74
2022/03/31 03:17:24;;;;;;;3.38;3.05;;;;;;;;;;5009575;28;100105;-75
2022/03/31 03:19:50;;;;;;;2.40;1.70;;;;;;;;;;5010218;28;98611;-74
2022/03/31 03:22:17;;;;;;;5.00;2.22;;;;;;;;;;5009947;28;99903;-74
2022/03/31 03:24:43;;;;;;;3.65;2.33;;;;;;;;;;5010021;28;100186;-74
2022/03/31 03:27:09;;;;;;;7.10;2.53;;;;;;;;;;5009897;28;98508;-73
2022/03/31 03:29:36;;;;;;;2.92;2.47;;;;;;;;;;5009039;28;100074;-73
2022/03/31 03:32:02;;;;;;;4.32;3.53;;;;;;;;;;5009599;28;100568;-73
2022/03/31 03:34:29;;;;;;;3.20;3.03;;;;;;;;;;5013491;28;98594;-73
2022/03/31 03:36:55;;;;;;;3.55;3.25;;;;;;;;;;5008921;28;100536;-74
2022/03/31 03:39:21;;;;;;;3.25;3.00;;;;;;;;;;5010271;28;98877;-74
2022/03/31 03:41:48;;;;;;;4.43;3.65;;;;;;;;;;5010144;28;99896;-75
2022/03/31 03:44:14;;;;;;;3.67;3.25;;;;;;;;;;5008663;28;99518;-74
2022/03/31 03:46:41;;;;;;;9.52;3.33;;;;;;;;;;5010296;28;97782;-74
2022/03/31 03:49:07;;;;;;;8.85;4.50;;;;;;;;;;5009900;28;99253;-74
2022/03/31 03:51:33;;;;;;;6.75;3.75;;;;;;;;;;5008630;28;100175;-74
2022/03/31 03:54:00;;;;;;;5.13;3.47;;;;;;;;;;5009214;28;100115;-75
2022/03/31 03:56:26;;;;;;;4.03;3.13;;;;;;;;;;5012451;28;100602;-76
2022/03/31 03:58:52;;;;;;;7.13;4.13;;;;;;;;;;5009128;28;98671;-76
2022/03/31 04:01:19;;;;;;;6.30;3.63;;;;;;;;;;5008850;28;99938;-77
2022/03/31 04:03:46;;;;;;;3.95;3.03;;;;;;;;;;5009207;28;100310;-78
2022/03/31 04:06:12;;;;;;;5.55;2.67;;;;;;;;;;5007662;28;98516;-78
2022/03/31 04:08:38;;;;;;;3.55;3.25;;;;;;;;;;5009377;28;100308;-79
2022/03/31 04:11:05;;;;;;;2.17;2.08;;;;;;;;;;5009869;28;98593;-79
2022/03/31 04:13:31;;;;;;;6.75;3.58;;;;;;;;;;5008656;28;98555;-80
2022/03/31 04:15:57;;;;;;;6.20;3.92;;;;;;;;;;5012170;28;99067;-80
2022/03/31 04:18:24;;;;;;;3.65;3.20;;;;;;;;;;5009119;28;99768;-80
2022/03/31 04:20:52;;;;;;;4.50;4.07;;;;;;;;;;5009137;28;100041;-79
2022/03/31 04:23:18;;;;;;;5.93;3.78;;;;;;;;;;5008810;28;100225;-80
2022/03/31 04:25:44;;;;;;;2.75;2.55;;;;;;;;;;5008782;28;98562;-79
2022/03/31 04:28:11;;;;;;;3.95;2.63;;;;;;;;;;5008996;28;100158;-79
2022/03/31 04:30:38;;;;;;;9.23;3.10;;;;;;;;;;5008358;28;100106;-80
2022/03/31 04:33:04;;;;;;;4.45;3.00;;;;;;;;;;5008761;28;98600;-79
2022/03/31 04:35:31;;;;;;;6.32;2.65;;;;;;;;;;5009771;28;99178;-82
2022/03/31 04:37:57;;;;;;;3.83;3.28;;;;;;;;;;5012074;28;100103;-82
2022/03/31 04:40:23;;;;;;;12.77;3.28;;;;;;;;;;5008344;28;99471;-86
2022/03/31 04:42:50;;;;;;;4.00;3.17;;;;;;;;;;5008316;28;100218;-90
2022/03/31 04:45:17;;;;;;;4.43;2.92;;;;;;;;;;5008729;28;98572;-87
2022/03/31 04:47:43;;;;;;;2.58;2.47;;;;;;;;;;5008608;28;99989;-89
2022/03/31 04:50:10;;;;;;;2.35;1.80;;;;;;;;;;5008469;28;99448;-92
2022/03/31 04:52:37;;;;;;;0.50;0.50;;;;;;;;;;5009485;28;98760;-92
2022/03/31 04:55:03;;;;;;;0.50;0.50;;;;;;;;;;5010021;28;99957;-89
2022/03/31 04:57:30;;;;;;;0.50;0.50;;;;;;;;;;5008261;28;100281;-88
2022/03/31 04:59:56;;;;;;;0.50;0.50;;;;;;;;;;5012511;28;97790;-84
2022/03/31 05:02:22;;;;;;;0.60;0.60;;;;;;;;;;5006731;28;100545;-83
2022/03/31 05:04:49;;;;;;;0.60;0.60;;;;;;;;;;5009025;28;98464;-82
2022/03/31 05:07:15;;;;;;;0.52;0.52;;;;;;;;;;5008199;28;99281;-81
2022/03/31 05:09:42;;;;;;;0.50;0.50;;;;;;;;;;5007414;28;100230;-81
2022/03/31 05:12:09;;;;;;;0.60;0.60;;;;;;;;;;5008595;28;98532;-81
2022/03/31 05:14:35;;;;;;;0.50;0.50;;;;;;;;;;5007915;28;100017;-81
2022/03/31 05:17:01;;;;;;;0.50;0.50;;;;;;;;;;5009263;28;100578;-82
2022/03/31 05:19:28;;;;;;;0.50;0.50;;;;;;;;;;5011965;28;98637;-82
2022/03/31 05:21:54;;;;;;;0.50;0.50;;;;;;;;;;5014529;28;99900;-81
2022/03/31 05:24:21;;;;;;;0.60;0.60;;;;;;;;;;5012528;28;98362;-81
2022/03/31 05:26:48;;;;;;;0.50;0.50;;;;;;;;;;5011983;28;99403;-81
2022/03/31 05:29:14;;;;;;;0.60;0.60;;;;;;;;;;5010672;28;101140;-82
2022/03/31 05:31:41;;;;;;;0.60;0.60;;;;;;;;;;5011490;28;99809;-82
2022/03/31 05:34:07;;;;;;;0.50;0.50;;;;;;;;;;5011858;28;100993;-81
2022/03/31 05:36:33;;;;;;;0.50;0.50;;;;;;;;;;5011090;28;99289;-81
2022/03/31 05:39:00;;;;;;;0.50;0.50;;;;;;;;;;5011909;28;98493;-82
2022/03/31 05:41:26;;;;;;;0.60;0.60;;;;;;;;;;5011463;28;98956;-82
2022/03/31 05:43:53;;;;;;;0.50;0.50;;;;;;;;;;5014366;28;100330;-82
2022/03/31 05:46:22;;;;;;;0.50;0.50;;;;;;;;;;5011376;28;100410;-81
2022/03/31 05:48:49;;;;;;;0.50;0.50;;;;;;;;;;5012064;28;99635;-81
2022/03/31 05:51:15;;;;;;;0.50;0.50;;;;;;;;;;5009599;28;99206;-82
2022/03/31 05:53:42;;;;;;;0.50;0.50;;;;;;;;;;5011637;28;100137;-82
2022/03/31 05:56:08;;;;;;;0.50;0.50;;;;;;;;;;5010834;28;101052;-81
2022/03/31 05:58:35;;;;;;;0.52;0.52;;;;;;;;;;5011190;28;98639;-81
2022/03/31 06:01:01;;;;;;;0.50;0.50;;;;;;;;;;5011997;28;99243;-81
2022/03/31 06:03:28;;;;;;;0.50;0.50;;;;;;;;;;5010919;28;100645;-81
2022/03/31 06:05:54;;;;;;;0.50;0.50;;;;;;;;;;5014193;28;98961;-81
2022/03/31 06:08:21;;;;;;;0.50;0.50;;;;;;;;;;5010393;28;100826;-81
2022/03/31 06:10:47;;;;;;;0.50;0.50;;;;;;;;;;5011694;28;98651;-81
2022/03/31 06:13:14;;;;;;;0.50;0.50;;;;;;;;;;5011564;28;99923;-81
2022/03/31 06:15:40;;;;;;;0.50;0.50;;;;;;;;;;5010628;28;100121;-80
2022/03/31 06:18:07;;;;;;;0.55;0.55;;;;;;;;;;5010892;28;99060;-80
2022/03/31 06:20:36;;;;;;;0.60;0.60;;;;;;;;;;5010824;28;100519;-80
2022/03/31 06:23:03;;;;;;;0.50;0.50;;;;;;;;;;5010741;28;100294;-79
2022/03/31 06:25:29;;;;;;;0.60;0.60;;;;;;;;;;5012123;28;98527;-80
2022/03/31 06:27:56;;;;;;;0.60;0.60;;;;;;;;;;5010071;28;99587;-79
2022/03/31 06:30:22;;;;;;;0.60;0.60;;;;;;;;;;5010931;28;98983;-79
2022/03/31 06:32:49;;;;;;;0.60;0.60;;;;;;;;;;5009198;28;100013;-79
2022/03/31 06:35:16;;;;;;;0.50;0.50;;;;;;;;;;5009973;28;100301;-79
2022/03/31 06:37:43;;;;;;;0.50;0.50;;;;;;;;;;5011442;28;97934;-80
2022/03/31 06:40:10;;;;;;;0.50;0.50;;;;;;;;;;5010087;28;99221;-79
2022/03/31 06:42:37;;;;;;;0.50;0.50;;;;;;;;;;5010399;28;100257;-79
2022/03/31 06:45:03;;;;;;;0.50;0.50;;;;;;;;;;5010513;28;99591;-79
2022/03/31 06:47:50;;;;;;;0.50;0.50;;;;;;;;;;5013479;28;99564;-79
2022/03/31 06:50:16;;;;;;;0.50;0.50;;;;;;;;;;5011189;28;98586;-77
2022/03/31 06:52:43;;;;;;;0.50;0.50;;;;;;;;;;5011340;28;99927;-78
2022/03/31 06:55:09;;;;;;;0.50;0.50;;;;;;;;;;5010047;28;100299;-78
2022/03/31 06:57:35;;;;;;;0.50;0.50;;;;;;;;;;5011141;28;98525;-78
2022/03/31 07:00:03;;;;;;;0.50;0.50;;;;;;;;;;5009046;28;98905;-78
2022/03/31 07:02:29;;;;;;;0.50;0.50;;;;;;;;;;5009260;28;99530;-77
2022/03/31 07:04:56;;;;;;;0.50;0.50;;;;;;;;;;5010488;28;99250;-77
2022/03/31 07:07:24;;;;;;;0.40;0.40;;;;;;;;;;5009548;28;100202;-77
2022/03/31 07:09:51;;;;;;;0.50;0.50;;;;;;;;;;5011547;28;101142;-77
2022/03/31 07:12:17;;;;;;;0.50;0.50;;;;;;;;;;5007652;28;100763;-77
2022/03/31 07:14:44;;;;;;;0.60;0.60;;;;;;;;;;5007402;28;100350;-76
2022/03/31 07:17:11;;;;;;;0.50;0.50;;;;;;;;;;5008656;28;99502;-77
2022/03/31 07:19:38;;;;;;;0.60;0.60;;;;;;;;;;5010533;28;100001;-76
2022/03/31 07:22:04;;;;;;;0.50;0.50;;;;;;;;;;5009562;28;99830;-76
2022/03/31 07:24:31;;;;;;;0.50;0.50;;;;;;;;;;5009914;28;98568;-76
2022/03/31 07:26:57;;;;;;;0.50;0.50;;;;;;;;;;5010747;28;99613;-75
2022/03/31 07:29:23;;;;;;;0.60;0.60;;;;;;;;;;5009369;28;100463;-75
2022/03/31 07:31:50;;;;;;;0.50;0.50;;;;;;;;;;5013563;28;98589;-75
2022/03/31 07:34:16;;;;;;;0.50;0.50;;;;;;;;;;5009072;28;100870;-75
2022/03/31 07:36:42;;;;;;;0.50;0.50;;;;;;;;;;5009519;28;99143;-75
2022/03/31 07:39:09;;;;;;;0.50;0.50;;;;;;;;;;5010081;28;99984;-75
2022/03/31 07:41:35;;;;;;;0.50;0.50;;;;;;;;;;5009734;28;100080;-75
2022/03/31 07:44:02;;;;;;;0.50;0.50;;;;;;;;;;5009263;28;98578;-75
2022/03/31 07:46:32;;;;;;;0.50;0.50;;;;;;;;;;5009651;28;99959;-75
2022/03/31 07:48:59;;;;;;;0.57;0.57;;;;;;;;;;5009594;28;98523;-74
2022/03/31 07:51:26;;;;;;;0.50;0.50;;;;;;;;;;5009741;28;97855;-74
2022/03/31 07:53:53;;;;;;;0.50;0.50;;;;;;;;;;5012788;28;99199;-74
2022/03/31 07:56:19;;;;;;;0.50;0.50;;;;;;;;;;5009644;28;98557;-74
2022/03/31 07:58:45;;;;;;;0.50;0.50;;;;;;;;;;5008649;28;100409;-74
2022/03/31 08:01:12;;;;;;;0.50;0.50;;;;;;;;;;5008966;28;100724;-75
2022/03/31 08:03:39;;;;;;;0.50;0.50;;;;;;;;;;5009266;28;99196;-74
2022/03/31 08:06:08;;;;;;;0.50;0.50;;;;;;;;;;5009436;28;100279;-74
2022/03/31 08:08:34;;;;;;;0.50;0.50;;;;;;;;;;5008458;28;100127;-74
2022/03/31 08:11:01;;;;;;;0.50;0.50;;;;;;;;;;5008818;28;98526;-74
2022/03/31 08:13:28;;;;;;;0.50;0.50;;;;;;;;;;5009018;28;99959;-74
2022/03/31 08:15:55;;;;;;;0.50;0.50;;;;;;;;;;5012813;28;99539;-74
2022/03/31 08:18:32;;;;;;;0.50;0.50;;;;;;;;;;5008593;28;99356;-73
2022/03/31 08:20:59;;;;;;;0.50;0.50;;;;;;;;;;5009193;28;100258;-73
2022/03/31 08:23:25;;;;;;;0.50;0.50;;;;;;;;;;5008442;28;99406;-73
2022/03/31 08:25:53;;;;;;;0.50;0.50;;;;;;;;;;5008520;28;100672;-73
2022/03/31 08:28:20;;;;;;;0.50;0.50;;;;;;;;;;5008923;28;99925;-73
2022/03/31 08:30:46;;;;;;;0.50;0.50;;;;;;;;;;5009625;28;99017;-72
2022/03/31 08:33:13;;;;;;;0.50;0.50;;;;;;;;;;5008291;28;98866;-71
2022/03/31 08:35:43;;;;;;;0.50;0.50;;;;;;;;;;5012071;28;100605;-71
2022/03/31 08:38:10;;;;;;;0.50;0.50;;;;;;;;;;5008718;28;98999;-71
2022/03/31 08:40:37;;;;;;;0.50;0.50;;;;;;;;;;5008679;28;99360;-71
2022/03/31 08:43:04;;;;;;;0.50;0.50;;;;;;;;;;5008957;28;98567;-71
2022/03/31 08:45:34;;;;;;;0.43;0.43;;;;;;;;;;5008759;28;100497;-71
2022/03/31 08:48:01;;;;;;;0.50;0.50;;;;;;;;;;5007409;28;100611;-70
2022/03/31 08:50:28;;;;;;;0.50;0.50;;;;;;;;;;5008652;28;98574;-70
2022/03/31 08:52:54;;;;;;;0.50;0.50;;;;;;;;;;5007333;28;100142;-70
2022/03/31 08:55:21;;;;;;;0.50;0.50;;;;;;;;;;5008054;28;100241;-70
2022/03/31 08:57:48;;;;;;;0.50;0.50;;;;;;;;;;5012069;28;98522;-70
2022/03/31 09:00:16;;;;;;;0.43;0.43;;;;;;;;;;5007302;28;100547;-70
2022/03/31 09:02:59;;;;;;;0.50;0.50;;;;;;;;;;5008474;28;98595;-70
2022/03/31 09:05:27;;;;;;;0.50;0.50;;;;;;;;;;5008739;28;99923;-70
2022/03/31 09:07:54;;;;;;;0.50;0.50;;;;;;;;;;5007694;28;99383;-70
2022/03/31 09:10:24;;;;;;;0.40;0.40;;;;;;;;;;5008219;28;98502;-70
2022/03/31 09:12:50;;;;;;;0.40;0.40;;;;;;;;;;5008534;28;99461;-70
2022/03/31 09:15:29;;;;;;;0.40;0.40;;;;;;;;;;5007446;28;100166;-70
2022/03/31 09:17:56;;;;;;;0.50;0.50;;;;;;;;;;5008197;28;98519;-70
2022/03/31 09:20:23;;;;;;;0.47;0.47;;;;;;;;;;5011101;28;99933;-70
2022/03/31 09:22:50;;;;;;;0.40;0.40;;;;;;;;;;5007842;28;98617;-70
2022/03/31 09:25:22;;;;;;;0.50;0.50;;;;;;;;;;5008006;28;100323;-70
2022/03/31 09:27:49;;;;;;;;;;;;;;;;;;5008612;28;100256;-70
2022/03/31 09:30:15;;;;;;;0.40;0.40;;;;;;;;;;5008162;28;118266;-70
2022/03/31 09:32:45;;;;;;;0.50;0.50;;;;;;;;;;5008412;28;99141;-70
2022/03/31 09:35:15;;;;;;;0.40;0.40;;;;;;;;;;5006967;28;99448;-69
2022/03/31 09:37:41;;;;;;;0.40;0.40;;;;;;;;;;5007743;28;99231;-70
2022/03/31 09:40:08;;;;;;;0.40;0.40;;;;;;;;;;5008371;28;99884;-70
2022/03/31 09:42:34;;;;;;;0.50;0.50;;;;;;;;;;5010663;28;100235;-71
2022/03/31 09:45:00;;;;;;;3.88;3.63;;;;;;;;;;5008201;28;99800;-70
2022/03/31 09:47:28;;;;;;;1.13;1.13;;;;;;;;;;5007629;28;99751;-70
2022/03/31 09:49:55;;;;;;;0.50;0.50;;;;;;;;;;5007631;28;98580;-69
2022/03/31 09:52:22;;;;;;;0.50;0.50;;;;;;;;;;5007850;28;99032;-70
2022/03/31 09:54:49;;;;;;;0.50;0.50;;;;;;;;;;5008542;28;98436;-69
2022/03/31 09:57:20;;;;;;;0.50;0.50;;;;;;;;;;5006981;28;98550;-69
2022/03/31 09:59:50;;;;;;;0.57;0.57;;;;;;;;;;5008214;28;100390;-69
2022/03/31 10:02:17;;;;;;;0.40;0.40;;;;;;;;;;5007242;28;100144;-70
2022/03/31 10:04:44;;;;;;;0.50;0.50;;;;;;;;;;5014092;28;98574;-70
2022/03/31 10:07:11;;;;;;;0.45;0.45;;;;;;;;;;5010796;28;100549;-70
2022/03/31 10:09:39;;;;;;;3.13;2.15;;;;;;;;;;5011144;28;98554;-70
2022/03/31 10:12:11;;;;;;;0.50;0.50;;;;;;;;;;5010279;28;100445;-69
2022/03/31 10:14:43;;;;;;;0.50;0.50;;;;;;;;;;5010896;28;99646;-70
2022/03/31 10:17:10;;;;;;;;;;;;;;;;;;5011588;28;98555;-70
2022/03/31 10:19:41;;;;;;;0.40;0.40;;;;;;;;;;5011961;28;129355;-70
2022/03/31 10:22:10;;;;;;;0.40;0.40;;;;;;;;;;5010341;28;100229;-70
2022/03/31 10:24:42;;;;;;;7.07;3.72;;;;;;;;;;5010208;28;98511;-70
2022/03/31 10:27:12;;;;;;;0.60;0.60;;;;;;;;;;5013692;28;99280;-70
2022/03/31 10:29:39;;;;;;;0.50;0.50;;;;;;;;;;5010939;28;98619;-71
2022/03/31 10:32:16;;;;;;;0.40;0.40;;;;;;;;;;5010647;28;99354;-71
2022/03/31 10:34:44;;;;;;;0.50;0.50;;;;;;;;;;5010426;28;100282;-71
2022/03/31 10:37:12;;;;;;;0.50;0.50;;;;;;;;;;5010410;28;98716;-72
2022/03/31 10:39:38;;;;;;;0.40;0.40;;;;;;;;;;5010270;28;99928;-72
2022/03/31 10:42:07;;;;;;;0.50;0.50;;;;;;;;;;5010822;28;99276;-73
2022/03/31 10:44:33;;;;;;;0.50;0.50;;;;;;;;;;5010796;28;97813;-73
2022/03/31 10:47:01;;;;;;;0.50;0.50;;;;;;;;;;5013034;28;99741;-74
2022/03/31 10:49:29;;;;;;;0.40;0.40;;;;;;;;;;5010407;28;98557;-73
2022/03/31 10:51:56;;;;;;;0.40;0.40;;;;;;;;;;5010178;28;99260;-73
2022/03/31 10:54:25;;;;;;;0.50;0.50;;;;;;;;;;5009145;28;100226;-73
2022/03/31 10:57:05;;;;;;;0.40;0.40;;;;;;;;;;5010473;28;98524;-73
2022/03/31 10:59:32;;;;;;;0.50;0.50;;;;;;;;;;5009784;28;99150;-73
2022/03/31 11:02:02;;;;;;;0.40;0.40;;;;;;;;;;5010167;28;99821;-72
2022/03/31 11:04:28;;;;;;;0.50;0.50;;;;;;;;;;5010291;28;98877;-72
2022/03/31 11:06:55;;;;;;;0.43;0.43;;;;;;;;;;5009830;28;99085;-73
2022/03/31 11:09:23;;;;;;;0.47;0.47;;;;;;;;;;5013378;28;99679;-71
2022/03/31 11:11:52;;;;;;;0.50;0.50;;;;;;;;;;5010592;28;99433;-73
2022/03/31 11:14:19;;;;;;;0.47;0.47;;;;;;;;;;5008789;28;99442;-73
2022/03/31 11:16:48;;;;;;;0.50;0.50;;;;;;;;;;5010007;28;99323;-73
2022/03/31 11:19:19;;;;;;;0.63;0.63;;;;;;;;;;5010002;28;100046;-73
2022/03/31 11:21:45;;;;;;;0.40;0.40;;;;;;;;;;5009150;28;101499;-71
2022/03/31 11:24:12;;;;;;;0.40;0.40;;;;;;;;;;5009839;28;98553;-73
2022/03/31 11:26:40;;;;;;;0.45;0.45;;;;;;;;;;5010502;28;99898;-73
2022/03/31 11:29:11;;;;;;;0.50;0.50;;;;;;;;;;5008892;28;100250;-73
2022/03/31 11:31:51;;;;;;;0.47;0.47;;;;;;;;;;5013318;28;98562;-73
2022/03/31 11:34:23;;;;;;;0.40;0.40;;;;;;;;;;5009836;28;99860;-73
2022/03/31 11:36:51;;;;;;;0.50;0.50;;;;;;;;;;5009219;28;98507;-73
2022/03/31 11:39:18;;;;;;;0.40;0.40;;;;;;;;;;5009691;28;99190;-73
2022/03/31 11:41:45;;;;;;;0.40;0.40;;;;;;;;;;5008780;28;100124;-70
2022/03/31 11:44:19;;;;;;;0.50;0.50;;;;;;;;;;5009710;28;99063;-73
2022/03/31 11:46:49;;;;;;;0.50;0.50;;;;;;;;;;5009824;28;99861;-73
2022/03/31 11:49:20;;;;;;;0.50;0.50;;;;;;;;;;5008425;28;100345;-73
2022/03/31 11:51:49;;;;;;;0.50;0.50;;;;;;;;;;5009905;28;98520;-73
2022/03/31 11:54:16;;;;;;;0.40;0.40;;;;;;;;;;5011954;28;99993;-71
2022/03/31 11:56:42;;;;;;;0.45;0.45;;;;;;;;;;5009161;28;98623;-70
2022/03/31 11:59:09;;;;;;;0.55;0.55;;;;;;;;;;5010599;28;99108;-70
2022/03/31 12:01:47;;;;;;;0.40;0.40;;;;;;;;;;5009388;28;99508;-73
2022/03/31 12:04:17;;;;;;;0.40;0.40;;;;;;;;;;5008827;28;99060;-73
2022/03/31 12:06:44;;;;;;;0.40;0.40;;;;;;;;;;5009097;28;100051;-71
2022/03/31 12:09:11;;;;;;;0.40;0.40;;;;;;;;;;5008188;28;100281;-73
2022/03/31 12:11:37;;;;;;;0.50;0.50;;;;;;;;;;5008733;28;98646;-71
2022/03/31 12:14:03;;;;;;;0.50;0.50;;;;;;;;;;5009788;28;99859;-71
2022/03/31 12:16:45;;;;;;;0.50;0.50;;;;;;;;;;5012280;28;100299;-70
2022/03/31 12:19:12;;;;;;;0.90;0.90;;;;;;;;;;5008918;28;100240;-70
2022/03/31 12:21:47;;;;;;;0.50;0.50;;;;;;;;;;5008721;28;100910;-70
2022/03/31 12:24:13;;;;;;;0.43;0.43;;;;;;;;;;5008902;28;97910;-71
2022/03/31 12:26:52;;;;;;;0.40;0.40;;;;;;;;;;5008143;28;98985;-70
2022/03/31 12:29:19;;;;;;;0.50;0.50;;;;;;;;;;5008802;28;99674;-71
2022/03/31 12:31:46;;;;;;;0.40;0.40;;;;;;;;;;5007783;28;99314;-70
2022/03/31 12:34:12;;;;;;;0.40;0.40;;;;;;;;;;5009190;28;99833;-70
2022/03/31 12:36:40;;;;;;;0.40;0.40;;;;;;;;;;5008690;28;99855;-70
2022/03/31 12:39:08;;;;;;;0.40;0.40;;;;;;;;;;5011684;28;99150;-71
2022/03/31 12:41:36;;;;;;;0.40;0.40;;;;;;;;;;5008933;28;100264;-70
2022/03/31 12:44:16;;;;;;;0.40;0.40;;;;;;;;;;5008874;28;99054;-72
2022/03/31 12:46:44;;;;;;;0.40;0.40;;;;;;;;;;5008387;28;100009;-71
2022/03/31 12:49:16;;;;;;;0.50;0.50;;;;;;;;;;5008813;28;99454;-72
2022/03/31 12:51:52;;;;;;;0.50;0.50;;;;;;;;;;5008884;28;98651;-72
2022/03/31 12:54:26;;;;;;;0.50;0.50;;;;;;;;;;5008361;28;100542;-71
2022/03/31 12:56:57;;;;;;;0.50;0.50;;;;;;;;;;5007974;28;101568;-72
2022/03/31 12:59:25;;;;;;;0.40;0.40;;;;;;;;;;5011517;28;99302;-71
2022/03/31 13:01:55;;;;;;;0.40;0.40;;;;;;;;;;5008384;28;99532;-71
2022/03/31 13:04:22;;;;;;;0.50;0.50;;;;;;;;;;5008253;28;98597;-71
2022/03/31 13:06:48;;;;;;;0.40;0.40;;;;;;;;;;5007910;28;99131;-72
2022/03/31 13:09:14;;;;;;;0.50;0.50;;;;;;;;;;5007501;28;100274;-71
2022/03/31 13:11:43;;;;;;;0.40;0.40;;;;;;;;;;5008626;28;98605;-71
2022/03/31 13:14:12;;;;;;;0.68;0.68;;;;;;;;;;5008213;28;99643;-71
2022/03/31 13:16:40;;;;;;;0.50;0.50;;;;;;;;;;5008070;28;99337;-71
2022/03/31 13:19:07;;;;;;;0.50;0.50;;;;;;;;;;5008569;28;98568;-71
2022/03/31 13:21:33;;;;;;;0.50;0.50;;;;;;;;;;5010183;28;100060;-71
2022/03/31 13:24:01;;;;;;;0.40;0.40;;;;;;;;;;5008201;28;98525;-72
2022/03/31 13:26:31;;;;;;;0.43;0.43;;;;;;;;;;5008342;28;99967;-72
2022/03/31 13:29:01;;;;;;;0.50;0.50;;;;;;;;;;5007436;28;101429;-71
2022/03/31 13:31:28;;;;;;;0.50;0.50;;;;;;;;;;5008174;28;99357;-71
2022/03/31 13:33:54;;;;;;;0.50;0.50;;;;;;;;;;5008450;28;99158;-71
2022/03/31 13:36:21;;;;;;;0.40;0.40;;;;;;;;;;5006751;28;100435;-71
2022/03/31 13:38:47;;;;;;;0.40;0.40;;;;;;;;;;5011542;28;97890;-72
2022/03/31 13:41:13;;;;;;;0.50;0.50;;;;;;;;;;5010876;28;98955;-71
2022/03/31 13:43:40;;;;;;;0.45;0.45;;;;;;;;;;5014666;28;100182;-71
2022/03/31 13:46:07;;;;;;;0.50;0.50;;;;;;;;;;5011342;28;99895;-71
2022/03/31 13:48:33;;;;;;;0.50;0.50;;;;;;;;;;5010328;28;100387;-71
2022/03/31 13:50:59;;;;;;;0.50;0.50;;;;;;;;;;5011390;28;98520;-71
2022/03/31 13:53:44;;;;;;;0.40;0.40;;;;;;;;;;5011207;28;98982;-71
2022/03/31 13:56:12;;;;;;;0.50;0.50;;;;;;;;;;5010651;28;99506;-71
2022/03/31 14:01:23;;;;;;;0.50;0.50;;;;;;;;;;5011438;28;98970;-71
2022/03/31 14:03:54;;;;;;;0.50;0.50;;;;;;;;;;5010955;28;99816;-71
2022/03/31 14:06:21;;;;;;;0.50;0.50;;;;;;;;;;5014162;28;98573;-71
2022/03/31 14:08:51;;;;;;;0.50;0.50;;;;;;;;;;5010676;28;100809;-71
2022/03/31 14:11:18;;;;;;;0.50;0.50;;;;;;;;;;5010056;28;99413;-71
2022/03/31 14:13:44;;;;;;;0.50;0.50;;;;;;;;;;5011328;28;100715;-71
2022/03/31 14:16:11;;;;;;;3.40;2.45;;;;;;;;;;5010911;28;98498;-71
2022/03/31 14:18:39;;;;;;;0.50;0.50;;;;;;;;;;5010590;28;99196;-71
2022/03/31 14:21:09;;;;;;;0.50;0.50;;;;;;;;;;5011073;28;99963;-71
2022/03/31 14:23:36;;;;;;;0.50;0.50;;;;;;;;;;5010303;28;100327;-71
2022/03/31 14:26:02;;;;;;;0.50;0.50;;;;;;;;;;5010969;28;98528;-72
2022/03/31 14:28:31;;;;;;;0.50;0.50;;;;;;;;;;5014013;28;100780;-71
2022/03/31 14:30:57;;;;;;;0.50;0.50;;;;;;;;;;5010381;28;99199;-71
2022/03/31 14:33:41;;;;;;;0.50;0.50;;;;;;;;;;5011075;28;99788;-71
2022/03/31 14:36:08;;;;;;;0.50;0.50;;;;;;;;;;5009924;28;100556;-72
2022/03/31 14:38:39;;;;;;;0.50;0.50;;;;;;;;;;5010274;28;98500;-72
2022/03/31 14:41:13;;;;;;;0.50;0.50;;;;;;;;;;5010906;28;99293;-72
2022/03/31 14:43:40;;;;;;;0.50;0.50;;;;;;;;;;5010476;28;100172;-72